Time;durP1;ratioP1;P1;durP2;ratioP2;P2;SDS_P1;SDS_P2;PMS_P1;PMS_P2;Temp;Humidity;BMP_temperature;BMP_pressure;BME280_temperature;BME280_humidity;BME280_pressure;Samples;Min_cycle;Max_cycle;Signal;HPM_P1;HPM_P2
2022/04/17 00:02:05;;;;;;;1.23;1.23;;;19.50;64.30;;;;;;5027614;28;43978;-71
2022/04/17 00:04:34;;;;;;;1.20;1.20;;;19.50;64.60;;;;;;5027957;28;43991;-71
2022/04/17 00:07:03;;;;;;;1.07;1.07;;;19.40;64.80;;;;;;5026903;28;44103;-70
2022/04/17 00:09:32;;;;;;;1.10;1.10;;;19.40;65.00;;;;;;5027866;28;43914;-70
2022/04/17 00:12:01;;;;;;;1.20;1.20;;;19.30;65.00;;;;;;5026802;28;43803;-71
2022/04/17 00:14:29;;;;;;;1.20;1.20;;;19.30;65.10;;;;;;5027124;28;44006;-71
2022/04/17 00:16:57;;;;;;;1.20;1.20;;;19.30;65.50;;;;;;5026620;28;44877;-70
2022/04/17 00:19:25;;;;;;;1.40;1.40;;;19.30;65.80;;;;;;5021099;28;43745;-71
2022/04/17 00:21:52;;;;;;;1.17;1.17;;;19.40;65.70;;;;;;5027239;28;44017;-70
2022/04/17 00:24:22;;;;;;;1.30;1.30;;;19.60;65.40;;;;;;5009770;28;44435;-70
2022/04/17 00:26:54;;;;;;;1.43;1.27;;;19.80;64.70;;;;;;5020922;28;44916;-71
2022/04/17 00:29:22;;;;;;;1.10;1.10;;;20.00;64.30;;;;;;5027151;28;43401;-72
2022/04/17 00:31:51;;;;;;;1.20;1.20;;;20.00;63.90;;;;;;5027191;28;44016;-71
2022/04/17 00:34:20;;;;;;;1.30;1.30;;;20.00;63.90;;;;;;5027955;28;43900;-72
2022/04/17 00:36:47;;;;;;;1.20;1.20;;;19.90;63.70;;;;;;5027155;28;43888;-71
2022/04/17 00:39:15;;;;;;;1.00;1.00;;;19.80;63.70;;;;;;5027307;28;43878;-71
2022/04/17 00:41:46;;;;;;;1.03;1.03;;;19.70;64.00;;;;;;5027590;28;44345;-71
2022/04/17 00:44:15;;;;;;;1.13;1.13;;;19.60;64.10;;;;;;5027122;28;43341;-70
2022/04/17 00:46:42;;;;;;;1.30;1.30;;;19.50;64.40;;;;;;5026683;28;43958;-71
2022/04/17 00:49:10;;;;;;;1.30;1.30;;;19.40;64.80;;;;;;5008298;28;44357;-70
2022/04/17 00:51:39;;;;;;;1.20;1.20;;;19.40;65.50;;;;;;5026962;28;43424;-71
2022/04/17 00:54:08;;;;;;;1.13;1.13;;;19.50;65.60;;;;;;5026987;28;43810;-70
2022/04/17 00:56:36;;;;;;;1.30;1.30;;;19.60;65.10;;;;;;5027151;28;45254;-71
2022/04/17 00:59:06;;;;;;;1.07;1.07;;;19.70;64.80;;;;;;5025422;28;43350;-71
2022/04/17 01:01:34;;;;;;;1.10;1.10;;;19.60;64.40;;;;;;5026853;28;43771;-70
2022/04/17 01:04:02;;;;;;;1.03;1.03;;;19.60;65.10;;;;;;5026815;28;44071;-70
2022/04/17 01:06:30;;;;;;;1.00;1.00;;;19.50;64.40;;;;;;5026641;28;43977;-71
2022/04/17 01:08:58;;;;;;;1.13;1.13;;;19.40;64.60;;;;;;5026377;28;44228;-71
2022/04/17 01:11:26;;;;;;;1.00;1.00;;;19.40;64.80;;;;;;5026803;28;44005;-71
2022/04/17 01:13:55;;;;;;;1.23;1.23;;;19.30;64.90;;;;;;5026022;28;43816;-70
2022/04/17 01:16:24;;;;;;;1.50;1.50;;;19.30;65.00;;;;;;5025585;28;44485;-70
2022/04/17 01:18:56;;;;;;;1.10;1.10;;;19.20;65.10;;;;;;5026213;28;43929;-71
2022/04/17 01:21:25;;;;;;;1.10;1.10;;;19.20;65.20;;;;;;5026545;28;44062;-71
2022/04/17 01:26:57;;;;;;;1.17;1.17;;;19.30;65.80;;;;;;4990821;28;44855;-71
2022/04/17 01:29:25;;;;;;;1.13;1.13;;;19.50;65.30;;;;;;5021261;28;43966;-70
2022/04/17 01:31:53;;;;;;;1.20;1.20;;;19.70;64.80;;;;;;5008091;28;44014;-71
2022/04/17 01:34:21;;;;;;;1.20;1.20;;;19.90;64.30;;;;;;5026963;28;43923;-71
2022/04/17 01:36:51;;;;;;;1.40;1.40;;;20.00;63.90;;;;;;5026457;28;45092;-71
2022/04/17 01:39:19;;;;;;;1.20;1.20;;;20.00;63.80;;;;;;5026136;28;43994;-70
2022/04/17 01:41:47;;;;;;;1.03;1.03;;;19.90;63.70;;;;;;5026576;28;43360;-70
2022/04/17 01:44:16;;;;;;;1.10;1.10;;;19.80;63.70;;;;;;5026479;28;44092;-70
2022/04/17 01:46:44;;;;;;;1.00;1.00;;;19.70;63.90;;;;;;5026169;28;43933;-71
2022/04/17 01:49:15;;;;;;;1.13;1.13;;;19.60;64.10;;;;;;5007301;28;44809;-70
2022/04/17 01:51:43;;;;;;;1.07;1.07;;;19.50;64.30;;;;;;5026008;28;43762;-70
2022/04/17 01:54:13;;;;;;;1.00;1.00;;;19.40;65.30;;;;;;5025908;28;43957;-71
2022/04/17 01:56:42;;;;;;;1.30;1.30;;;19.40;65.40;;;;;;5025872;28;43883;-71
2022/04/17 01:59:11;;;;;;;1.10;1.10;;;19.40;65.60;;;;;;5025223;28;43378;-71
2022/04/17 02:01:39;;;;;;;1.10;1.10;;;19.60;65.40;;;;;;5025807;28;43472;-71
2022/04/17 02:04:08;;;;;;;1.20;1.20;;;19.60;64.70;;;;;;5008199;28;43922;-71
2022/04/17 02:06:39;;;;;;;1.10;1.10;;;19.60;64.50;;;;;;5007808;28;45429;-70
2022/04/17 02:09:08;;;;;;;1.20;1.20;;;19.60;64.20;;;;;;5022716;28;45108;-70
2022/04/17 02:11:38;;;;;;;1.00;1.00;;;19.50;64.20;;;;;;5025880;28;43455;-71
2022/04/17 02:14:06;;;;;;;1.10;1.10;;;19.40;64.30;;;;;;5026116;28;43501;-71
2022/04/17 02:16:34;;;;;;;1.10;1.10;;;19.40;64.60;;;;;;5025360;28;44072;-71
2022/04/17 02:19:02;;;;;;;0.90;0.90;;;19.30;64.70;;;;;;5025083;28;44186;-71
2022/04/17 02:21:30;;;;;;;1.10;1.10;;;19.30;64.90;;;;;;5025716;28;43864;-71
2022/04/17 02:24:00;;;;;;;1.10;1.10;;;19.20;64.90;;;;;;5007822;28;43931;-71
2022/04/17 02:26:28;;;;;;;1.10;1.10;;;19.20;65.00;;;;;;5025244;28;44063;-71
2022/04/17 02:28:57;;;;;;;1.00;1.00;;;19.20;65.40;;;;;;5025135;28;43963;-70
2022/04/17 02:31:25;;;;;;;1.07;1.07;;;19.20;65.70;;;;;;5025574;28;43941;-71
2022/04/17 02:33:53;;;;;;;1.10;1.10;;;19.40;65.50;;;;;;5025721;28;44032;-71
2022/04/17 02:36:21;;;;;;;1.03;1.03;;;19.60;65.10;;;;;;5025553;28;43957;-70
2022/04/17 02:38:49;;;;;;;1.00;1.00;;;19.80;64.40;;;;;;5025205;28;44029;-70
2022/04/17 02:41:18;;;;;;;1.10;1.10;;;19.90;63.90;;;;;;5025372;28;44017;-70
2022/04/17 02:43:46;;;;;;;1.10;1.10;;;20.00;63.60;;;;;;5026477;28;43371;-71
2022/04/17 02:47:42;;;;;;;1.10;1.10;;;20.00;63.60;;;;;;5024995;28;43866;-70
2022/04/17 02:49:03;;;;;;;1.03;1.03;;;19.80;63.50;;;;;;5024421;28;44048;-71
2022/04/17 02:51:33;;;;;;;1.17;1.17;;;19.70;63.50;;;;;;5007727;28;44061;-70
2022/04/17 02:54:01;;;;;;;1.03;1.03;;;19.60;64.50;;;;;;5025137;28;43914;-71
2022/04/17 02:56:29;;;;;;;1.20;1.20;;;19.50;64.00;;;;;;5007211;28;46023;-71
2022/04/17 02:58:57;;;;;;;1.30;1.30;;;19.40;64.20;;;;;;5024781;28;43885;-71
2022/04/17 03:06:57;;;;;;;1.00;1.00;;;19.50;65.30;;;;;;5025136;28;44840;-71
2022/04/17 03:09:25;;;;;;;1.30;1.30;;;19.60;64.80;;;;;;5025056;28;43914;-70
2022/04/17 03:11:53;;;;;;;1.03;1.03;;;19.60;64.50;;;;;;5024522;28;43351;-71
2022/04/17 03:14:21;;;;;;;1.20;1.20;;;19.50;64.10;;;;;;5007062;28;43607;-70
2022/04/17 03:16:50;;;;;;;0.90;0.90;;;19.50;64.00;;;;;;5024922;28;43521;-70
2022/04/17 03:19:18;;;;;;;0.80;0.80;;;19.40;64.20;;;;;;5018337;28;43824;-70
2022/04/17 03:21:46;;;;;;;1.00;1.00;;;19.30;64.40;;;;;;5021548;28;44033;-71
2022/04/17 03:24:15;;;;;;;1.00;1.00;;;19.30;64.50;;;;;;5010113;28;43948;-71
2022/04/17 03:26:43;;;;;;;1.00;1.00;;;19.20;64.60;;;;;;5028017;28;45154;-70
2022/04/17 03:29:11;;;;;;;1.17;1.17;;;19.20;64.80;;;;;;5021809;28;43517;-70
2022/04/17 03:31:39;;;;;;;1.00;1.00;;;19.20;64.90;;;;;;5022018;28;43989;-71
2022/04/17 03:34:09;;;;;;;1.03;1.03;;;19.10;64.90;;;;;;5009932;28;43843;-71
2022/04/17 03:36:38;;;;;;;1.00;1.00;;;19.20;65.50;;;;;;5027783;28;45110;-71
2022/04/17 03:39:06;;;;;;;1.00;1.00;;;19.30;65.50;;;;;;5027565;28;44167;-71
2022/04/17 03:41:34;;;;;;;1.00;1.00;;;19.40;65.00;;;;;;5027939;28;43815;-70
2022/04/17 03:44:04;;;;;;;1.10;1.10;;;19.60;64.50;;;;;;5027958;28;43957;-71
2022/04/17 03:46:33;;;;;;;1.00;1.00;;;19.80;64.10;;;;;;5027656;28;43949;-71
2022/04/17 03:49:01;;;;;;;1.00;1.00;;;19.90;63.60;;;;;;5027169;28;43954;-71
2022/04/17 03:51:30;;;;;;;1.20;1.20;;;19.90;63.50;;;;;;5027829;28;43381;-71
2022/04/17 03:53:58;;;;;;;1.10;1.10;;;19.80;63.40;;;;;;5027697;28;43376;-71
2022/04/17 03:56:26;;;;;;;1.00;1.00;;;19.70;63.40;;;;;;5028239;28;44990;-71
2022/04/17 03:58:54;;;;;;;0.90;0.90;;;19.60;63.50;;;;;;5027508;28;44432;-71
2022/04/17 04:01:22;;;;;;;1.10;1.10;;;19.50;63.90;;;;;;5027531;28;43359;-70
2022/04/17 04:03:50;;;;;;;1.20;1.20;;;19.40;64.10;;;;;;5009928;28;44212;-70
2022/04/17 04:06:18;;;;;;;1.00;1.00;;;19.30;64.30;;;;;;5027920;28;44052;-71
2022/04/17 04:08:48;;;;;;;1.00;1.00;;;19.30;64.80;;;;;;5028088;28;44012;-71
2022/04/17 04:11:17;;;;;;;1.03;1.03;;;19.30;65.30;;;;;;5027406;28;43859;-71
2022/04/17 04:13:45;;;;;;;1.00;1.00;;;19.40;65.00;;;;;;5028147;28;43465;-70
2022/04/17 04:16:14;;;;;;;0.93;0.93;;;19.50;64.70;;;;;;5026242;28;44041;-71
2022/04/17 04:18:42;;;;;;;1.00;1.00;;;19.60;64.40;;;;;;5027457;28;43433;-70
2022/04/17 04:21:10;;;;;;;1.00;1.00;;;19.50;64.00;;;;;;5027117;28;43403;-71
2022/04/17 04:23:40;;;;;;;0.97;0.97;;;19.50;64.00;;;;;;5027885;28;44234;-72
2022/04/17 04:26:09;;;;;;;1.00;1.00;;;19.40;64.20;;;;;;5026782;28;44044;-70
2022/04/17 04:28:36;;;;;;;0.90;0.90;;;19.30;64.40;;;;;;5027199;28;43921;-71
2022/04/17 04:31:05;;;;;;;0.90;0.90;;;19.20;64.50;;;;;;5027111;28;43973;-70
2022/04/17 04:33:33;;;;;;;0.90;0.90;;;19.20;64.70;;;;;;5026473;28;43954;-71
2022/04/17 04:36:01;;;;;;;1.10;1.10;;;19.10;64.70;;;;;;5026111;28;44164;-72
2022/04/17 04:38:31;;;;;;;0.93;0.93;;;19.10;64.90;;;;;;5027519;28;44284;-71
2022/04/17 04:41:00;;;;;;;1.10;1.10;;;19.10;65.00;;;;;;5027448;28;43893;-70
2022/04/17 04:43:29;;;;;;;0.90;0.90;;;19.10;65.30;;;;;;5027805;28;43942;-70
2022/04/17 04:46:09;;;;;;;1.00;1.00;;;19.20;65.30;;;;;;5009416;28;46032;-71
2022/04/17 04:51:25;;;;;;;1.00;1.00;;;19.60;64.30;;;;;;5027416;28;43901;-71
2022/04/17 04:53:53;;;;;;;0.97;0.97;;;19.80;63.70;;;;;;5027245;28;43999;-71
2022/04/17 04:56:21;;;;;;;1.00;1.00;;;19.80;63.40;;;;;;5027028;28;43977;-71
2022/04/17 04:58:50;;;;;;;1.00;1.00;;;19.80;63.30;;;;;;5027340;28;44042;-70
2022/04/17 05:01:18;;;;;;;1.17;1.17;;;19.70;63.20;;;;;;5027644;28;44061;-70
2022/04/17 05:03:46;;;;;;;1.00;1.00;;;19.60;63.30;;;;;;5027790;28;43955;-70
2022/04/17 05:06:14;;;;;;;1.00;1.00;;;19.50;63.60;;;;;;5026640;28;44367;-71
2022/04/17 05:08:42;;;;;;;0.97;0.97;;;19.40;63.80;;;;;;5008891;28;45050;-70
2022/04/17 05:11:10;;;;;;;0.90;0.90;;;19.30;64.10;;;;;;5026519;28;44080;-70
2022/04/17 05:13:39;;;;;;;1.00;1.00;;;19.30;64.30;;;;;;5027391;28;43781;-71
2022/04/17 05:16:09;;;;;;;1.03;1.03;;;19.20;64.80;;;;;;5026053;28;43907;-71
2022/04/17 05:18:37;;;;;;;1.10;1.10;;;19.30;65.10;;;;;;5026734;28;43953;-71
2022/04/17 05:21:06;;;;;;;1.00;1.00;;;19.40;64.70;;;;;;5026607;28;44052;-70
2022/04/17 05:23:36;;;;;;;1.00;1.00;;;19.50;64.30;;;;;;5027182;28;44085;-70
2022/04/17 05:26:05;;;;;;;1.10;1.10;;;19.50;63.90;;;;;;5026576;28;43977;-71
2022/04/17 05:28:33;;;;;;;0.97;0.97;;;19.50;63.90;;;;;;5026813;28;43998;-71
2022/04/17 05:31:01;;;;;;;0.93;0.93;;;19.40;63.90;;;;;;5026563;28;43952;-70
2022/04/17 05:33:30;;;;;;;0.93;0.93;;;19.30;64.00;;;;;;5026736;28;43907;-71
2022/04/17 05:35:58;;;;;;;1.00;1.00;;;19.30;64.30;;;;;;5026453;28;45017;-71
2022/04/17 05:38:26;;;;;;;0.97;0.97;;;19.20;64.40;;;;;;5026658;28;44001;-71
2022/04/17 05:40:54;;;;;;;1.17;1.17;;;19.20;64.60;;;;;;5026729;28;44262;-70
2022/04/17 05:43:22;;;;;;;0.90;0.90;;;19.10;64.60;;;;;;5026884;28;43943;-70
2022/04/17 05:45:50;;;;;;;1.00;1.00;;;19.10;64.80;;;;;;5026614;28;43954;-70
2022/04/17 05:48:18;;;;;;;1.00;1.00;;;19.10;64.90;;;;;;5026495;28;44006;-71
2022/04/17 05:50:47;;;;;;;1.20;1.20;;;19.10;65.40;;;;;;5026440;28;43879;-71
2022/04/17 05:53:15;;;;;;;1.00;1.00;;;19.20;65.00;;;;;;5026922;28;43957;-70
2022/04/17 05:55:43;;;;;;;1.20;1.20;;;19.40;64.80;;;;;;5008450;28;46054;-72
2022/04/17 05:58:11;;;;;;;1.00;1.00;;;19.60;64.30;;;;;;5026155;28;43768;-71
2022/04/17 06:00:42;;;;;;;0.90;0.90;;;19.80;63.70;;;;;;5008545;28;43454;-71
2022/04/17 06:03:10;;;;;;;1.23;1.10;;;19.90;63.20;;;;;;5026445;28;44000;-72
2022/04/17 06:05:38;;;;;;;0.93;0.93;;;19.90;63.10;;;;;;5026384;28;43572;-71
2022/04/17 06:08:08;;;;;;;0.90;0.90;;;19.80;63.00;;;;;;5026135;28;43442;-71
2022/04/17 06:10:36;;;;;;;1.10;1.10;;;19.60;63.00;;;;;;5026566;28;43811;-70
2022/04/17 06:13:04;;;;;;;0.90;0.90;;;19.60;63.30;;;;;;5026505;28;44063;-71
2022/04/17 06:15:32;;;;;;;0.90;0.90;;;19.50;63.50;;;;;;5026284;28;44060;-70
2022/04/17 06:18:01;;;;;;;1.00;1.00;;;19.40;63.80;;;;;;5025648;28;43826;-71
2022/04/17 06:20:29;;;;;;;0.90;0.90;;;19.30;64.00;;;;;;5026179;28;43420;-71
2022/04/17 06:22:57;;;;;;;1.10;1.10;;;19.20;64.60;;;;;;5026155;28;43900;-70
2022/04/17 06:25:30;;;;;;;0.90;0.90;;;19.30;64.90;;;;;;5025978;28;44799;-70
2022/04/17 06:27:59;;;;;;;0.93;0.93;;;19.40;64.60;;;;;;5025713;28;44028;-71
2022/04/17 06:30:27;;;;;;;1.00;1.00;;;19.50;64.20;;;;;;5026202;28;43438;-70
2022/04/17 06:32:55;;;;;;;1.03;1.03;;;19.50;63.90;;;;;;5026262;28;44069;-71
2022/04/17 06:35:23;;;;;;;0.90;0.90;;;19.40;63.70;;;;;;5025719;28;43968;-71
2022/04/17 06:37:51;;;;;;;1.00;1.00;;;19.30;63.80;;;;;;5007708;28;44118;-69
2022/04/17 06:40:20;;;;;;;1.00;1.00;;;19.30;64.00;;;;;;5026523;28;44060;-71
2022/04/17 06:42:50;;;;;;;0.90;0.90;;;19.20;64.20;;;;;;5026296;28;43981;-72
2022/04/17 06:45:18;;;;;;;1.10;1.10;;;19.20;64.40;;;;;;5026020;28;44727;-70
2022/04/17 06:47:46;;;;;;;1.00;1.00;;;19.10;64.50;;;;;;5007800;28;44020;-70
2022/04/17 06:50:15;;;;;;;1.00;1.00;;;19.10;64.70;;;;;;5025844;28;43969;-70
2022/04/17 06:52:43;;;;;;;1.00;1.00;;;19.00;64.70;;;;;;5026288;28;44052;-70
2022/04/17 06:55:12;;;;;;;0.90;0.90;;;19.00;64.90;;;;;;5025336;28;44009;-71
2022/04/17 06:57:45;;;;;;;0.90;0.90;;;19.00;65.10;;;;;;5029209;28;43953;-71
2022/04/17 07:00:15;;;;;;;1.17;1.17;;;19.20;65.10;;;;;;5029038;28;44049;-71
2022/04/17 07:02:43;;;;;;;1.27;1.20;;;19.40;64.60;;;;;;5029169;28;43852;-70
2022/04/17 07:05:11;;;;;;;1.00;1.00;;;19.50;64.10;;;;;;5028287;28;43828;-72
2022/04/17 07:07:39;;;;;;;1.00;1.00;;;19.70;63.70;;;;;;5029053;28;43932;-71
2022/04/17 07:10:08;;;;;;;1.00;1.00;;;19.70;63.40;;;;;;5028964;28;43962;-70
2022/04/17 07:12:36;;;;;;;1.00;1.00;;;19.70;63.30;;;;;;5022819;28;44044;-71
2022/04/17 07:15:15;;;;;;;1.10;1.10;;;19.60;63.30;;;;;;5023090;28;43905;-71
2022/04/17 07:17:44;;;;;;;1.00;1.00;;;19.50;63.40;;;;;;5028136;28;44592;-70
2022/04/17 07:20:12;;;;;;;1.00;1.00;;;19.40;63.60;;;;;;5028904;28;43359;-71
2022/04/17 07:22:40;;;;;;;0.93;0.93;;;19.30;63.80;;;;;;5011355;28;43921;-70
2022/04/17 07:25:09;;;;;;;1.00;1.00;;;19.20;64.00;;;;;;5028560;28;43944;-71
2022/04/17 07:27:38;;;;;;;1.10;1.10;;;19.20;64.20;;;;;;5028840;28;44064;-70
2022/04/17 07:30:14;;;;;;;1.10;1.10;;;19.10;64.80;;;;;;5010649;28;43915;-70
2022/04/17 07:32:43;;;;;;;0.93;0.93;;;19.20;64.90;;;;;;5029275;28;43941;-71
2022/04/17 07:35:11;;;;;;;1.00;1.00;;;19.30;64.50;;;;;;5028486;28;44033;-70
2022/04/17 07:37:39;;;;;;;0.90;0.90;;;19.40;64.00;;;;;;5028664;28;43957;-71
2022/04/17 07:40:13;;;;;;;1.00;1.00;;;19.40;63.70;;;;;;5028743;28;43357;-72
2022/04/17 07:42:41;;;;;;;1.00;1.00;;;19.30;63.70;;;;;;5028837;28;43954;-71
2022/04/17 07:45:10;;;;;;;1.20;1.20;;;19.30;63.90;;;;;;5010271;28;45355;-71
2022/04/17 07:47:39;;;;;;;1.10;1.10;;;19.20;64.10;;;;;;5028211;28;44296;-70
2022/04/17 07:50:08;;;;;;;1.10;1.10;;;19.20;64.30;;;;;;5028280;28;43980;-71
2022/04/17 07:52:36;;;;;;;1.00;1.00;;;19.10;64.40;;;;;;5028950;28;43457;-71
2022/04/17 07:55:05;;;;;;;0.80;0.80;;;19.10;64.50;;;;;;5028003;28;44024;-71
2022/04/17 07:57:54;;;;;;;1.10;1.10;;;19.00;64.60;;;;;;5028086;28;44309;-70
2022/04/17 08:00:22;;;;;;;0.97;0.97;;;19.00;64.70;;;;;;5028059;28;44016;-71
2022/04/17 08:03:20;;;;;;;0.90;0.90;;;19.00;64.90;;;;;;5027822;28;44048;-70
2022/04/17 08:05:49;;;;;;;0.93;0.93;;;19.10;65.20;;;;;;5028159;28;43857;-69
2022/04/17 08:08:17;;;;;;;1.00;1.00;;;19.20;64.90;;;;;;5027453;28;43995;-70
2022/04/17 08:10:47;;;;;;;1.00;1.00;;;19.40;64.40;;;;;;5028296;28;44056;-70
2022/04/17 08:13:15;;;;;;;1.20;1.20;;;19.60;64.00;;;;;;5028256;28;43988;-71
2022/04/17 08:15:43;;;;;;;1.73;1.67;;;19.70;63.50;;;;;;5027659;28;44101;-71
2022/04/17 08:18:12;;;;;;;1.97;1.50;;;19.70;63.20;;;;;;5026810;28;43403;-70
2022/04/17 08:20:40;;;;;;;2.60;2.07;;;19.70;63.20;;;;;;5028018;28;44073;-71
2022/04/17 08:23:08;;;;;;;3.87;2.30;;;19.60;63.30;;;;;;5028083;28;44083;-71
2022/04/17 08:25:36;;;;;;;3.73;2.87;;;19.50;63.40;;;;;;5009454;28;45793;-70
2022/04/17 08:28:05;;;;;;;5.23;2.67;;;19.30;63.60;;;;;;5027546;28;44007;-71
2022/04/17 08:30:33;;;;;;;7.47;3.47;;;19.30;64.00;;;;;;5009759;28;44021;-70
2022/04/17 08:33:02;;;;;;;4.53;3.00;;;19.20;64.10;;;;;;5027855;28;44367;-71
2022/04/17 08:35:32;;;;;;;12.43;4.00;;;19.10;64.30;;;;;;5027554;28;43965;-71
2022/04/17 08:38:02;;;;;;;6.97;3.57;;;19.10;64.80;;;;;;5027103;28;43403;-71
2022/04/17 08:40:30;;;;;;;7.90;3.83;;;19.20;64.70;;;;;;5021187;28;43954;-71
2022/04/17 08:42:59;;;;;;;10.17;4.50;;;19.30;64.40;;;;;;5020931;28;43922;-72
2022/04/17 08:45:27;;;;;;;13.87;4.90;;;19.50;64.00;;;;;;5002766;28;46930;-71
2022/04/17 08:47:55;;;;;;;14.93;5.13;;;19.50;63.40;;;;;;5021058;28;44085;-71
2022/04/17 08:50:23;;;;;;;13.27;5.20;;;19.50;63.30;;;;;;5021241;28;43965;-72
2022/04/17 08:52:54;;;;;;;10.60;4.80;;;19.40;63.30;;;;;;5021702;28;43902;-70
2022/04/17 08:55:22;;;;;;;9.20;5.17;;;19.30;63.50;;;;;;5021065;28;45157;-71
2022/04/17 08:57:50;;;;;;;14.80;5.70;;;19.20;63.70;;;;;;5027372;28;44149;-70
2022/04/17 09:00:18;;;;;;;14.90;6.43;;;19.20;64.00;;;;;;5027453;28;43969;-72
2022/04/17 09:02:47;;;;;;;11.67;5.30;;;19.10;64.20;;;;;;5027969;28;43864;-71
2022/04/17 09:05:16;;;;;;;11.83;5.57;;;19.10;64.40;;;;;;5026961;28;44122;-71
2022/04/17 09:07:45;;;;;;;11.20;4.80;;;19.00;64.50;;;;;;5009019;28;46074;-71
2022/04/17 09:10:25;;;;;;;11.30;5.27;;;19.00;64.60;;;;;;5008851;28;43882;-71
2022/04/17 09:12:54;;;;;;;10.93;4.87;;;19.00;64.90;;;;;;5027327;28;43356;-71
2022/04/17 09:15:26;;;;;;;11.67;4.90;;;19.20;64.80;;;;;;5026346;28;44072;-70
2022/04/17 09:17:54;;;;;;;13.00;5.10;;;19.30;64.20;;;;;;5020973;28;45198;-71
2022/04/17 09:20:22;;;;;;;8.17;4.53;;;19.50;63.60;;;;;;5027106;28;44021;-71
2022/04/17 09:22:51;;;;;;;10.33;5.13;;;19.60;63.30;;;;;;5027174;28;44189;-71
2022/04/17 09:25:22;;;;;;;8.13;4.73;;;19.60;62.90;;;;;;5026818;28;43902;-71
2022/04/17 09:27:58;;;;;;;7.37;4.43;;;19.50;63.20;;;;;;5027130;28;43925;-72
2022/04/17 09:30:28;;;;;;;12.10;5.17;;;19.30;63.30;;;;;;5025230;28;44048;-71
2022/04/17 09:32:56;;;;;;;8.43;4.60;;;19.30;63.70;;;;;;5026640;28;44221;-71
2022/04/17 09:35:24;;;;;;;8.50;4.70;;;19.20;63.80;;;;;;5026910;28;45112;-71
2022/04/17 09:37:57;;;;;;;9.50;4.87;;;19.10;63.90;;;;;;5026668;28;43891;-70
2022/04/17 09:40:26;;;;;;;6.63;4.27;;;19.10;63.90;;;;;;5025411;28;43944;-71
2022/04/17 09:43:11;;;;;;;11.20;5.23;;;19.10;64.10;;;;;;5026748;28;43483;-71
2022/04/17 09:45:58;;;;;;;6.83;4.10;;;19.00;64.60;;;;;;5022003;28;43947;-71
2022/04/17 09:48:29;;;;;;;7.93;4.27;;;19.10;64.70;;;;;;5026660;28;43489;-71
2022/04/17 09:50:57;;;;;;;7.83;4.40;;;19.30;64.40;;;;;;5026202;28;43805;-71
2022/04/17 09:53:35;;;;;;;7.13;4.37;;;19.50;63.90;;;;;;5027231;28;44079;-71
2022/04/17 09:56:08;;;;;;;5.60;3.77;;;19.60;63.50;;;;;;5026075;28;43952;-70
2022/04/17 09:58:37;;;;;;;6.17;3.53;;;19.50;63.00;;;;;;5018548;28;44682;-70
2022/04/17 10:01:15;;;;;;;6.30;4.00;;;19.50;63.00;;;;;;5020871;28;43692;-71
2022/04/17 10:03:44;;;;;;;6.80;3.70;;;19.40;63.30;;;;;;5026449;28;43965;-72
2022/04/17 10:06:12;;;;;;;4.03;3.50;;;19.30;63.50;;;;;;5025941;28;44804;-71
2022/04/17 10:08:43;;;;;;;6.63;4.30;;;19.20;63.60;;;;;;5026478;28;43483;-70
2022/04/17 10:11:13;;;;;;;5.70;3.60;;;19.20;63.90;;;;;;5026539;28;43888;-71
2022/04/17 10:13:41;;;;;;;5.33;3.93;;;19.10;64.00;;;;;;5026575;28;43963;-71
2022/04/17 10:16:09;;;;;;;4.73;3.80;;;19.10;64.20;;;;;;5025236;28;43963;-71
2022/04/17 10:18:41;;;;;;;5.60;4.17;;;19.00;64.50;;;;;;5025816;28;44000;-71
2022/04/17 10:21:10;;;;;;;4.27;3.67;;;19.10;64.70;;;;;;5025804;28;43977;-71
2022/04/17 10:23:42;;;;;;;5.77;3.83;;;19.20;64.40;;;;;;5008458;28;43883;-71
2022/04/17 10:26:13;;;;;;;4.67;3.30;;;19.40;64.00;;;;;;5025789;28;43867;-71
2022/04/17 10:28:42;;;;;;;5.13;3.60;;;19.50;63.60;;;;;;5026250;28;43990;-70
2022/04/17 10:31:15;;;;;;;4.03;3.13;;;19.50;63.10;;;;;;5024989;28;43401;-71
2022/04/17 10:33:51;;;;;;;4.50;2.73;;;19.50;63.20;;;;;;5008374;28;43889;-72
2022/04/17 10:36:33;;;;;;;4.37;3.20;;;19.40;63.40;;;;;;5026032;28;43982;-70
2022/04/17 10:39:09;;;;;;;3.33;3.13;;;19.30;63.70;;;;;;5025777;28;43950;-71
2022/04/17 10:41:39;;;;;;;4.10;3.07;;;19.20;64.10;;;;;;5025824;28;43956;-70
2022/04/17 10:44:07;;;;;;;3.30;3.07;;;19.20;64.40;;;;;;5025917;28;43791;-70
2022/04/17 10:46:46;;;;;;;3.83;3.13;;;19.10;64.50;;;;;;5025814;28;43912;-71
2022/04/17 10:49:14;;;;;;;3.53;3.00;;;19.10;64.70;;;;;;5025436;28;43910;-71
2022/04/17 10:51:50;;;;;;;3.40;2.93;;;19.10;65.00;;;;;;5025978;28;43917;-71
2022/04/17 10:54:22;;;;;;;3.10;2.67;;;19.10;65.10;;;;;;5026328;28;43880;-71
2022/04/17 10:57:10;;;;;;;3.20;2.90;;;19.20;64.70;;;;;;5007603;28;45714;-71
2022/04/17 10:59:45;;;;;;;2.80;2.60;;;19.30;64.30;;;;;;5026122;28;43462;-71
2022/04/17 11:02:24;;;;;;;3.00;2.70;;;19.30;64.10;;;;;;5007309;28;43424;-71
2022/04/17 11:04:53;;;;;;;3.40;2.70;;;19.30;64.20;;;;;;5025540;28;44121;-70
2022/04/17 11:07:23;;;;;;;2.90;2.70;;;19.20;64.40;;;;;;5007418;28;47218;-72
2022/04/17 11:10:09;;;;;;;3.10;2.90;;;19.10;64.60;;;;;;5025304;28;43565;-70
2022/04/17 11:12:53;;;;;;;2.60;2.50;;;19.10;64.90;;;;;;5020733;28;43978;-71
2022/04/17 11:15:26;;;;;;;2.77;2.57;;;19.00;65.10;;;;;;5025839;28;44120;-70
2022/04/17 11:18:03;;;;;;;2.90;2.70;;;19.00;65.10;;;;;;5024601;28;43875;-70
2022/04/17 11:20:31;;;;;;;2.63;2.40;;;19.00;65.30;;;;;;5025440;28;44044;-71
2022/04/17 11:22:59;;;;;;;3.30;2.67;;;19.00;66.20;;;;;;5007228;28;43383;-71
2022/04/17 11:25:28;;;;;;;3.10;2.53;;;19.00;65.60;;;;;;5025974;28;44231;-71
2022/04/17 11:28:02;;;;;;;2.47;2.37;;;19.00;65.40;;;;;;5025076;28;44158;-71
2022/04/17 11:30:53;;;;;;;3.10;2.80;;;19.20;65.20;;;;;;5025220;28;43985;-70
2022/04/17 11:33:21;;;;;;;2.47;2.37;;;19.40;64.60;;;;;;5007158;28;43445;-70
2022/04/17 11:35:49;;;;;;;3.13;2.13;;;19.50;64.00;;;;;;5025660;28;44295;-70
2022/04/17 11:38:17;;;;;;;2.80;2.60;;;19.60;63.70;;;;;;5025298;28;43958;-71
2022/04/17 11:40:48;;;;;;;2.47;2.30;;;19.60;63.60;;;;;;5025496;28;43998;-70
2022/04/17 11:43:18;;;;;;;2.50;2.40;;;19.50;63.70;;;;;;5027979;28;44088;-70
2022/04/17 11:45:47;;;;;;;2.20;2.10;;;19.40;64.00;;;;;;5029051;28;43935;-71
2022/04/17 11:48:16;;;;;;;2.23;2.10;;;19.30;64.30;;;;;;5028135;28;44196;-71
2022/04/17 11:50:44;;;;;;;2.63;2.43;;;19.30;64.60;;;;;;5010191;28;45378;-71
2022/04/17 11:53:12;;;;;;;2.97;2.67;;;19.20;64.80;;;;;;5009629;28;43854;-70
2022/04/17 11:55:41;;;;;;;2.60;2.47;;;19.20;65.00;;;;;;5028709;28;43923;-71
2022/04/17 11:58:10;;;;;;;2.63;2.43;;;19.10;65.10;;;;;;5028198;28;43972;-71
2022/04/17 12:00:42;;;;;;;2.60;2.40;;;19.10;65.40;;;;;;5028420;28;44020;-71
2022/04/17 12:03:11;;;;;;;2.50;2.10;;;19.20;65.30;;;;;;5028083;28;43949;-70
2022/04/17 12:05:39;;;;;;;2.63;2.43;;;19.30;64.80;;;;;;5028541;28;44027;-71
2022/04/17 12:08:11;;;;;;;2.10;2.00;;;19.30;64.50;;;;;;5028040;28;44048;-71
2022/04/17 12:10:40;;;;;;;2.03;2.03;;;19.30;64.50;;;;;;5028052;28;44048;-71
2022/04/17 12:13:12;;;;;;;2.10;2.00;;;19.30;64.70;;;;;;5027987;28;44072;-71
2022/04/17 12:15:42;;;;;;;3.03;1.93;;;19.20;64.80;;;;;;5028382;28;43491;-72
2022/04/17 12:18:10;;;;;;;2.40;2.20;;;19.20;65.00;;;;;;5027093;28;43917;-71
2022/04/17 12:20:38;;;;;;;2.13;2.03;;;19.10;65.10;;;;;;5027877;28;43981;-71
2022/04/17 12:23:07;;;;;;;2.10;2.00;;;19.10;65.30;;;;;;5027765;28;44067;-71
2022/04/17 12:25:35;;;;;;;2.13;2.03;;;19.00;65.40;;;;;;5028014;28;43889;-70
2022/04/17 12:28:04;;;;;;;2.60;2.40;;;19.00;65.40;;;;;;5027159;28;44065;-71
2022/04/17 12:30:31;;;;;;;2.00;1.90;;;19.00;65.50;;;;;;5027650;28;44000;-71
2022/04/17 12:33:01;;;;;;;1.70;1.70;;;19.00;65.60;;;;;;5027249;28;43891;-71
2022/04/17 12:35:29;;;;;;;1.70;1.60;;;19.10;65.60;;;;;;5028244;28;44017;-71
2022/04/17 12:38:07;;;;;;;2.00;1.90;;;19.20;65.10;;;;;;5020754;28;44085;-71
2022/04/17 12:40:43;;;;;;;1.90;1.83;;;19.40;64.70;;;;;;5027580;28;43982;-70
2022/04/17 12:43:14;;;;;;;2.00;1.90;;;19.50;64.20;;;;;;5027395;28;43437;-70
2022/04/17 12:45:52;;;;;;;1.83;1.73;;;19.50;63.90;;;;;;5027921;28;43901;-71
2022/04/17 12:48:26;;;;;;;1.83;1.80;;;19.50;64.00;;;;;;5027351;28;43961;-70
2022/04/17 12:50:58;;;;;;;1.70;1.70;;;19.40;64.30;;;;;;5027093;28;43971;-70
2022/04/17 12:53:26;;;;;;;2.17;1.97;;;19.30;64.50;;;;;;5026756;28;43449;-71
2022/04/17 12:55:54;;;;;;;1.63;1.63;;;19.20;64.60;;;;;;5027471;28;44049;-71
2022/04/17 12:58:22;;;;;;;1.60;1.60;;;19.20;65.00;;;;;;5027320;28;44049;-71
2022/04/17 13:00:57;;;;;;;1.70;1.70;;;19.10;65.10;;;;;;5027186;28;43485;-70
2022/04/17 13:03:35;;;;;;;1.57;1.57;;;19.10;65.30;;;;;;5027364;28;44056;-72
2022/04/17 13:06:04;;;;;;;2.00;1.90;;;19.00;65.30;;;;;;5027370;28;43365;-71
2022/04/17 13:08:32;;;;;;;1.77;1.70;;;19.10;65.60;;;;;;5027240;28;44000;-71
2022/04/17 13:11:00;;;;;;;1.87;1.80;;;19.20;65.40;;;;;;5026747;28;44074;-71